Terminal Aerodrome Forecast
Issued by NWS

Home | Current Version | Previous Version | Text Only | Print | Product List | Glossary On
Versions: 1 2 3 4 5 6 7 8 9 10 11 12 13 14 15 16
961
FTUS43 KDLH 132340
TAFHYR
TAF
KHYR 132340Z 1400/1424 18005KT P6SM SKC
     FM141000 15006KT P6SM BKN120
     FM141800 16008KT P6SM VCSH OVC025
     FM142100 16007KT P6SM -SN SCT015 OVC020=

USA.gov is the U.S. government's official web portal to all federal, state and local government web resources and services.